Terminal Aerodrome Forecast
Issued by NWS Spokane, WA

Home | Current Version | Previous Version | Text Only | Print | Product List | Glossary On
Versions: 1 2 3 4 5 6 7 8 9 10 11 12 13 14 15 16 17 18 19 20 21 22 23 24 25 26 27 28 29 30 31 32 33 34 35 36 37 38 39 40 41 42
568
FTUS46 KOTX 041739
TAFLWS
TAF
KLWS 041739Z 0418/0518 22010KT P6SM -RA OVC029
     FM042000 26014G22KT P6SM -SHRA BKN040 OVC060
     FM042200 27017G23KT P6SM SCT040 BKN080
     FM050100 26012KT P6SM FEW080
     FM050600 23006KT P6SM SKC
     FM051400 11003KT P6SM VCFG SCT120=

USA.gov is the U.S. government's official web portal to all federal, state and local government web resources and services.